Time;durP1;ratioP1;P1;durP2;ratioP2;P2;SDS_P1;SDS_P2;PMS_P1;PMS_P2;Temp;Humidity;BMP_temperature;BMP_pressure;BME280_temperature;BME280_humidity;BME280_pressure;Samples;Min_cycle;Max_cycle;Signal;HPM_P1;HPM_P2
2023/02/17 00:00:52;;;;;;;24.00;17.73;;;10.20;99.90;;;;;;2616509;54;20912;-73
2023/02/17 00:06:40;;;;;;;26.77;19.47;;;10.20;99.90;;;;;;2617090;54;20118;-72
2023/02/17 00:12:28;;;;;;;20.80;13.00;;;10.20;99.90;;;;;;2617109;39;20201;-73
2023/02/17 00:18:16;;;;;;;21.50;16.73;;;10.20;99.90;;;;;;2616631;54;20118;-72
2023/02/17 00:21:21;;;;;;;21.10;17.37;;;10.30;99.90;;;;;;2616218;47;20412;-73
2023/02/17 00:34:09;;;;;;;22.27;15.07;;;10.40;99.90;;;;;;2615330;54;20374;-74
2023/02/17 00:39:56;;;;;;;24.43;15.30;;;10.40;99.90;;;;;;2615545;54;20464;-72
2023/02/17 00:45:43;;;;;;;17.27;12.90;;;10.30;99.90;;;;;;2614820;54;20144;-72
2023/02/17 00:48:46;;;;;;;22.60;14.40;;;10.40;99.90;;;;;;2615025;54;20429;-73
2023/02/17 00:51:12;;;;;;;17.10;12.93;;;10.40;99.90;;;;;;2615447;54;20159;-73
2023/02/17 00:56:59;;;;;;;20.00;14.37;;;10.40;99.90;;;;;;2615380;54;20135;-72
2023/02/17 01:02:46;;;;;;;18.80;14.33;;;10.40;99.90;;;;;;2615281;54;20255;-73
2023/02/17 01:08:34;;;;;;;22.67;12.77;;;10.50;99.90;;;;;;2617524;39;20630;-72
2023/02/17 01:14:22;;;;;;;17.80;15.00;;;10.40;99.90;;;;;;2616339;54;20414;-73
2023/02/17 01:20:10;;;;;;;19.60;14.30;;;10.40;99.90;;;;;;2617118;39;20597;-74
2023/02/17 01:22:55;;;;;;;19.93;13.10;;;10.40;99.90;;;;;;2615909;46;20415;-76
2023/02/17 01:25:20;;;;;;;27.63;15.43;;;10.30;99.90;;;;;;2616217;54;20426;-73
2023/02/17 01:31:10;;;;;;;24.43;14.60;;;10.20;99.90;;;;;;2616272;54;20147;-73
2023/02/17 01:36:57;;;;;;;15.63;13.13;;;10.20;99.90;;;;;;2616794;54;20901;-73
2023/02/17 01:42:45;;;;;;;14.27;10.30;;;10.10;99.90;;;;;;2616467;54;20134;-72
2023/02/17 01:54:57;;;;;;;19.10;15.03;;;10.00;99.90;;;;;;2616276;54;20419;-72
2023/02/17 02:00:46;;;;;;;24.77;18.07;;;10.00;99.90;;;;;;2615990;54;20343;-71
2023/02/17 02:06:37;;;;;;;20.40;16.13;;;10.00;99.90;;;;;;2615351;54;20383;-71
2023/02/17 02:12:28;;;;;;;19.37;15.17;;;10.00;99.90;;;;;;2615195;54;20454;-70
2023/02/17 02:47:55;;;;;;;26.13;15.37;;;10.20;99.90;;;;;;2613427;54;20511;-71
2023/02/17 03:13:02;;;;;;;19.60;15.60;;;10.60;99.90;;;;;;2614242;54;20370;-71
2023/02/17 03:18:49;;;;;;;15.23;11.90;;;10.70;99.90;;;;;;2614171;54;20551;-71
2023/02/17 03:27:58;;;;;;;17.13;13.60;;;10.80;99.90;;;;;;2614021;54;20455;-70
2023/02/17 03:33:45;;;;;;;13.87;12.10;;;10.80;99.90;;;;;;2614232;54;20130;-71
2023/02/17 03:39:32;;;;;;;10.53;8.60;;;10.80;99.90;;;;;;2614533;54;20495;-72
2023/02/17 03:45:20;;;;;;;10.57;9.47;;;10.90;99.90;;;;;;2616451;54;20158;-73
2023/02/17 03:51:17;;;;;;;14.10;10.90;;;11.00;99.90;;;;;;2616658;54;20131;-72
2023/02/17 03:57:04;;;;;;;13.40;10.30;;;10.90;99.90;;;;;;2616203;54;20444;-72
2023/02/17 04:02:52;;;;;;;16.83;11.10;;;11.00;99.90;;;;;;2616298;54;20247;-72
2023/02/17 04:08:40;;;;;;;12.37;11.00;;;11.10;99.90;;;;;;2616214;54;20122;-73
2023/02/17 04:14:27;;;;;;;11.30;9.97;;;11.10;99.90;;;;;;2616161;54;20110;-71
2023/02/17 04:20:15;;;;;;;14.67;10.80;;;11.10;99.90;;;;;;2616207;54;20119;-72
2023/02/17 04:23:26;;;;;;;13.50;11.80;;;11.10;99.90;;;;;;2615512;47;20391;-73
2023/02/17 04:25:52;;;;;;;13.37;11.00;;;11.10;99.90;;;;;;2615993;54;20135;-73
2023/02/17 04:31:40;;;;;;;11.93;10.73;;;11.10;99.90;;;;;;2616133;54;20660;-73
2023/02/17 04:37:27;;;;;;;11.83;9.87;;;11.20;99.90;;;;;;2616275;46;20157;-73
2023/02/17 04:43:15;;;;;;;9.93;8.93;;;11.10;99.90;;;;;;2616130;54;20162;-72
2023/02/17 04:49:03;;;;;;;10.87;8.47;;;11.10;99.90;;;;;;2616202;54;20138;-73
2023/02/17 04:54:51;;;;;;;11.27;9.50;;;11.20;99.90;;;;;;2615927;54;20130;-72
2023/02/17 05:00:38;;;;;;;13.17;10.40;;;11.10;99.90;;;;;;2616249;54;20410;-73
2023/02/17 05:06:26;;;;;;;8.07;7.27;;;11.10;99.90;;;;;;2616258;54;20215;-72
2023/02/17 05:12:13;;;;;;;13.90;9.40;;;11.20;99.90;;;;;;2616193;54;20167;-72
2023/02/17 05:18:02;;;;;;;10.23;8.77;;;11.20;99.90;;;;;;2615997;54;20139;-73
2023/02/17 05:27:58;;;;;;;10.07;9.03;;;11.20;99.90;;;;;;2616007;54;20390;-72
2023/02/17 05:33:46;;;;;;;8.43;7.57;;;11.20;99.90;;;;;;2616020;54;20391;-72
2023/02/17 05:39:34;;;;;;;10.33;8.30;;;11.20;99.90;;;;;;2615766;54;20655;-72
2023/02/17 05:45:22;;;;;;;12.00;10.73;;;11.20;99.90;;;;;;2615793;54;20378;-73
2023/02/17 05:51:09;;;;;;;11.37;9.60;;;11.20;99.90;;;;;;2616015;54;20142;-73
2023/02/17 05:56:57;;;;;;;13.30;11.80;;;11.10;99.90;;;;;;2615872;54;20138;-72
2023/02/17 06:02:45;;;;;;;14.53;10.80;;;11.10;99.90;;;;;;2615948;54;20126;-73
2023/02/17 06:08:34;;;;;;;12.43;10.40;;;11.10;99.90;;;;;;2615808;54;20644;-74
2023/02/17 06:14:21;;;;;;;11.90;7.10;;;11.10;99.90;;;;;;2615786;54;21155;-73
2023/02/17 06:20:10;;;;;;;14.73;10.60;;;11.10;99.90;;;;;;2615888;54;20134;-73
2023/02/17 06:23:28;;;;;;;9.60;8.37;;;11.10;99.90;;;;;;2615757;54;20515;-73
2023/02/17 06:25:53;;;;;;;13.20;9.43;;;11.10;99.90;;;;;;2615593;54;21002;-72
2023/02/17 06:31:41;;;;;;;12.23;10.07;;;11.10;99.90;;;;;;2615920;54;20122;-73
2023/02/17 06:37:29;;;;;;;11.90;9.27;;;11.20;99.90;;;;;;2615809;54;20127;-73
2023/02/17 06:43:17;;;;;;;11.30;10.10;;;11.20;99.90;;;;;;2615931;54;20123;-72
2023/02/17 06:49:05;;;;;;;14.77;11.47;;;11.10;99.90;;;;;;2615936;54;20157;-72
2023/02/17 06:54:52;;;;;;;13.37;10.63;;;11.00;99.90;;;;;;2615601;54;20154;-72
2023/02/17 07:00:40;;;;;;;13.27;7.90;;;10.90;99.90;;;;;;2615636;54;20134;-73
2023/02/17 07:06:28;;;;;;;17.63;10.47;;;10.60;99.90;;;;;;2615799;54;20215;-73
2023/02/17 07:12:15;;;;;;;17.53;9.67;;;10.50;99.90;;;;;;2615767;54;20150;-72
2023/02/17 07:18:03;;;;;;;15.13;11.70;;;10.40;99.90;;;;;;2615916;39;20508;-73
2023/02/17 07:28:00;;;;;;;15.60;11.63;;;10.60;99.90;;;;;;2615391;46;20418;-71
2023/02/17 07:33:49;;;;;;;15.00;11.33;;;10.70;99.90;;;;;;2615124;54;20399;-72
2023/02/17 07:39:36;;;;;;;14.73;12.33;;;10.80;99.90;;;;;;2615247;54;20504;-72
2023/02/17 07:45:24;;;;;;;18.77;12.90;;;10.90;99.90;;;;;;2615340;54;20123;-73
2023/02/17 07:51:14;;;;;;;14.67;12.33;;;11.00;99.90;;;;;;2615601;54;20227;-73
2023/02/17 07:57:02;;;;;;;18.77;10.57;;;11.10;99.90;;;;;;2616222;54;20379;-73
2023/02/17 08:02:50;;;;;;;14.93;9.03;;;11.20;99.90;;;;;;2616574;46;20134;-73
2023/02/17 08:14:44;;;;;;;13.77;9.87;;;11.30;99.90;;;;;;2616157;54;20386;-72
2023/02/17 08:20:31;;;;;;;14.00;9.90;;;11.30;99.90;;;;;;2616254;54;20127;-73
2023/02/17 08:23:29;;;;;;;12.57;10.70;;;11.40;99.90;;;;;;2616388;39;20756;-72
2023/02/17 08:25:57;;;;;;;10.03;9.10;;;11.40;99.90;;;;;;2616400;54;20153;-72
2023/02/17 08:31:45;;;;;;;10.70;8.57;;;11.50;99.90;;;;;;2616385;54;20490;-73
2023/02/17 08:37:33;;;;;;;10.43;9.23;;;11.50;99.90;;;;;;2616109;54;20911;-72
2023/02/17 08:43:20;;;;;;;11.20;8.83;;;11.50;99.90;;;;;;2616263;54;20131;-73
2023/02/17 08:49:08;;;;;;;11.00;7.97;;;11.60;99.90;;;;;;2616045;54;20118;-73
2023/02/17 08:54:56;;;;;;;10.63;8.13;;;11.70;99.90;;;;;;2616043;54;20928;-73
2023/02/17 09:00:44;;;;;;;6.93;6.23;;;11.80;99.90;;;;;;2616102;54;20118;-72
2023/02/17 09:12:47;;;;;;;8.63;6.50;;;12.00;99.90;;;;;;2616208;54;20925;-72
2023/02/17 09:18:35;;;;;;;11.17;6.87;;;12.00;99.90;;;;;;2616022;54;20119;-73
2023/02/17 09:28:00;;;;;;;10.43;8.33;;;12.20;99.90;;;;;;2615499;54;20459;-73
2023/02/17 09:33:48;;;;;;;10.40;7.93;;;12.40;99.90;;;;;;2615886;54;20392;-73
2023/02/17 09:39:36;;;;;;;11.80;8.43;;;12.40;99.90;;;;;;2615588;54;20390;-71
2023/02/17 09:45:33;;;;;;;8.77;7.07;;;12.60;99.90;;;;;;2615911;54;20117;-72
2023/02/17 10:04:12;;;;;;;8.13;7.17;;;12.90;99.90;;;;;;2615720;54;20374;-72
2023/02/17 10:10:02;;;;;;;9.47;6.37;;;13.10;99.90;;;;;;2615548;54;20375;-73
2023/02/17 10:15:52;;;;;;;8.43;6.97;;;13.00;99.90;;;;;;2615844;54;20952;-72
2023/02/17 10:21:47;;;;;;;11.33;8.73;;;13.10;99.90;;;;;;2615855;54;20415;-73
2023/02/17 10:27:46;;;;;;;9.93;8.10;;;13.30;99.90;;;;;;2615987;54;20406;-72
2023/02/17 10:40:25;;;;;;;9.93;8.97;;;13.10;99.90;;;;;;2614113;54;20355;-73
2023/02/17 10:46:17;;;;;;;10.20;7.90;;;13.00;99.90;;;;;;2614062;54;20463;-72
2023/02/17 11:09:36;;;;;;;11.07;10.00;;;13.50;99.90;;;;;;2614426;39;21804;-73
2023/02/17 11:15:27;;;;;;;8.73;7.83;;;13.40;99.90;;;;;;2614165;54;20359;-74
2023/02/17 11:21:14;;;;;;;8.60;7.80;;;13.50;99.90;;;;;;2614113;54;20450;-72
2023/02/17 11:27:09;;;;;;;9.13;8.13;;;13.60;99.90;;;;;;2614275;54;20218;-73
2023/02/17 11:32:56;;;;;;;9.70;8.80;;;13.80;99.90;;;;;;2614580;54;20434;-72
2023/02/17 11:36:17;;;;;;;12.73;9.17;;;14.50;99.90;;;;;;2614843;39;20930;-72
2023/02/17 11:55:13;;;;;;;9.83;9.00;;;14.40;99.90;;;;;;2616492;39;20774;-73
2023/02/17 12:08:00;;;;;;;7.10;6.50;;;14.00;99.90;;;;;;2614978;54;20408;-73
2023/02/17 12:17:55;;;;;;;7.20;6.60;;;14.10;99.90;;;;;;2614875;54;20418;-72
2023/02/17 12:23:47;;;;;;;9.13;8.23;;;14.20;99.90;;;;;;2614757;54;20423;-74
2023/02/17 12:29:40;;;;;;;7.97;7.27;;;14.30;99.90;;;;;;2614688;54;20969;-71
2023/02/17 12:38:59;;;;;;;8.83;7.97;;;14.20;99.90;;;;;;2614567;54;20974;-73
2023/02/17 12:57:56;;;;;;;7.07;6.47;;;14.20;99.90;;;;;;2616202;54;20407;-73
2023/02/17 13:03:45;;;;;;;6.20;5.70;;;14.10;99.90;;;;;;2615927;54;20363;-73
2023/02/17 13:09:39;;;;;;;5.80;5.20;;;14.20;99.90;;;;;;2616359;46;20391;-72
2023/02/17 13:15:34;;;;;;;6.23;4.27;;;14.20;99.90;;;;;;2615813;54;20974;-73
2023/02/17 13:21:23;;;;;;;6.20;5.70;;;14.40;99.90;;;;;;2615935;54;20379;-72
2023/02/17 13:34:20;;;;;;;4.87;4.57;;;14.40;99.90;;;;;;2615574;54;20411;-73
2023/02/17 13:40:16;;;;;;;6.00;5.50;;;14.50;99.90;;;;;;2615861;54;20383;-73
2023/02/17 13:46:05;;;;;;;4.90;4.60;;;14.40;99.90;;;;;;2616536;39;20741;-73
2023/02/17 13:51:54;;;;;;;5.60;4.60;;;14.40;99.90;;;;;;2615784;54;20383;-73
2023/02/17 13:57:42;;;;;;;5.93;5.43;;;14.30;99.90;;;;;;2615960;54;20351;-73
2023/02/17 14:16:30;;;;;;;5.83;5.33;;;14.10;99.90;;;;;;2615964;54;20386;-72
2023/02/17 14:22:31;;;;;;;5.53;5.03;;;14.10;99.90;;;;;;2615610;54;20363;-73
2023/02/17 14:28:22;;;;;;;6.00;4.90;;;14.00;99.90;;;;;;2615715;54;20380;-72
2023/02/17 14:34:23;;;;;;;5.90;5.43;;;13.90;99.90;;;;;;2615751;54;21199;-72
2023/02/17 14:40:19;;;;;;;4.70;4.30;;;13.80;99.90;;;;;;2616154;54;20407;-71
2023/02/17 14:46:07;;;;;;;8.50;7.80;;;13.20;99.90;;;;;;2615653;54;20397;-72
2023/02/17 14:51:55;;;;;;;10.13;9.00;;;12.60;99.90;;;;;;2615212;54;20125;-73
2023/02/17 14:57:44;;;;;;;9.57;8.87;;;12.50;99.90;;;;;;2615371;54;20355;-72
2023/02/17 15:03:32;;;;;;;11.90;10.80;;;12.30;99.90;;;;;;2615042;54;20384;-73
2023/02/17 15:15:33;;;;;;;11.17;10.17;;;12.30;99.90;;;;;;2615229;54;20407;-73
2023/02/17 15:21:27;;;;;;;10.20;9.30;;;12.30;99.90;;;;;;2615360;54;20210;-73
2023/02/17 15:27:16;;;;;;;9.70;8.87;;;12.10;99.90;;;;;;2615304;54;20399;-71
2023/02/17 15:33:09;;;;;;;11.37;10.27;;;12.10;99.90;;;;;;2614863;54;20395;-73
2023/02/17 15:42:19;;;;;;;10.57;9.53;;;12.30;99.90;;;;;;2615166;46;20458;-73
2023/02/17 15:48:13;;;;;;;9.50;8.50;;;12.20;99.90;;;;;;2615387;54;20114;-73
2023/02/17 15:54:00;;;;;;;6.50;5.40;;;12.30;99.90;;;;;;2615070;54;20382;-73
2023/02/17 15:59:48;;;;;;;7.17;6.23;;;12.30;99.90;;;;;;2615491;54;20130;-72
2023/02/17 16:05:36;;;;;;;8.80;7.90;;;12.20;99.90;;;;;;2615050;54;20158;-72
2023/02/17 16:11:24;;;;;;;8.77;6.80;;;12.20;99.90;;;;;;2615194;54;20153;-73
2023/02/17 16:17:14;;;;;;;7.20;6.47;;;12.20;99.90;;;;;;2615668;54;20383;-73
2023/02/17 16:23:02;;;;;;;7.43;6.63;;;12.20;99.90;;;;;;2616021;54;20387;-73
2023/02/17 16:28:50;;;;;;;11.03;7.60;;;12.20;99.90;;;;;;2615795;54;20126;-72
2023/02/17 16:34:38;;;;;;;7.40;6.70;;;12.20;99.90;;;;;;2615918;54;20387;-73
2023/02/17 16:37:38;;;;;;;7.30;6.30;;;12.20;99.90;;;;;;2615407;46;20439;-73
2023/02/17 16:46:43;;;;;;;6.70;6.00;;;12.20;99.90;;;;;;2616098;54;20399;-73
2023/02/17 16:52:31;;;;;;;7.43;6.60;;;12.30;99.90;;;;;;2615979;54;20415;-73
2023/02/17 16:58:21;;;;;;;6.77;6.07;;;12.30;99.90;;;;;;2615971;54;20127;-73
2023/02/17 17:04:09;;;;;;;10.67;8.73;;;12.30;99.90;;;;;;2615935;54;20959;-73
2023/02/17 17:09:57;;;;;;;11.20;8.10;;;12.30;99.90;;;;;;2616061;54;20142;-73
2023/02/17 17:15:45;;;;;;;7.80;7.10;;;12.30;99.90;;;;;;2616057;54;20162;-72
2023/02/17 17:21:33;;;;;;;8.30;7.50;;;12.30;99.90;;;;;;2616297;54;20439;-74
2023/02/17 17:27:21;;;;;;;9.90;8.90;;;12.30;99.90;;;;;;2616119;54;20167;-72
2023/02/17 17:33:09;;;;;;;8.80;7.63;;;12.30;99.90;;;;;;2616014;54;20121;-72
2023/02/17 17:42:25;;;;;;;7.70;6.80;;;12.30;99.90;;;;;;2616004;54;20390;-73
2023/02/17 17:48:13;;;;;;;14.37;10.13;;;12.30;99.90;;;;;;2615883;54;20400;-74
2023/02/17 17:54:01;;;;;;;11.80;9.27;;;12.20;99.90;;;;;;2615886;54;20382;-73
2023/02/17 17:59:49;;;;;;;13.13;9.20;;;12.20;99.90;;;;;;2616060;54;20472;-72
2023/02/17 18:05:37;;;;;;;11.70;8.20;;;12.10;99.90;;;;;;2616542;39;20533;-72
2023/02/17 18:11:25;;;;;;;12.30;10.90;;;12.10;99.90;;;;;;2616060;54;20214;-71
2023/02/17 18:17:14;;;;;;;12.23;9.97;;;12.10;99.90;;;;;;2616224;54;20362;-73
2023/02/17 18:23:01;;;;;;;14.10;11.53;;;12.00;99.90;;;;;;2615763;54;20450;-73
2023/02/17 18:28:48;;;;;;;14.30;10.30;;;12.00;99.90;;;;;;2615842;54;20119;-74
2023/02/17 18:34:37;;;;;;;14.30;11.50;;;12.10;99.90;;;;;;2616436;39;20525;-72
2023/02/17 18:43:47;;;;;;;17.30;12.10;;;11.90;99.90;;;;;;2615777;54;20367;-72
2023/02/17 18:49:35;;;;;;;15.97;11.00;;;11.80;99.90;;;;;;2616075;54;20382;-74
2023/02/17 18:55:22;;;;;;;12.70;11.13;;;11.90;99.90;;;;;;2616007;54;20696;-73
2023/02/17 19:01:18;;;;;;;12.27;10.77;;;11.90;99.90;;;;;;2616088;46;20711;-73
2023/02/17 19:07:06;;;;;;;14.03;11.77;;;11.80;99.90;;;;;;2615515;54;20423;-72
2023/02/17 19:12:53;;;;;;;15.07;11.57;;;11.90;99.90;;;;;;2615435;46;20197;-73
2023/02/17 19:18:42;;;;;;;15.57;12.20;;;11.80;99.90;;;;;;2615621;54;20132;-72
2023/02/17 19:24:30;;;;;;;15.33;12.17;;;11.80;99.90;;;;;;2615468;54;20383;-72
2023/02/17 19:30:18;;;;;;;13.50;9.73;;;11.80;99.90;;;;;;2616089;39;20523;-73
2023/02/17 19:36:12;;;;;;;14.70;11.53;;;11.90;99.90;;;;;;2615703;54;20379;-73
2023/02/17 19:39:10;;;;;;;15.37;13.10;;;11.90;99.90;;;;;;2615412;54;20412;-73
2023/02/17 19:41:35;;;;;;;14.83;12.43;;;11.90;99.90;;;;;;2615602;54;20426;-72
2023/02/17 19:47:23;;;;;;;14.53;10.50;;;12.00;99.90;;;;;;2615465;54;20717;-74
2023/02/17 19:53:11;;;;;;;14.53;10.17;;;11.90;99.90;;;;;;2616126;54;20151;-73
2023/02/17 19:58:59;;;;;;;14.37;9.13;;;12.00;99.90;;;;;;2616235;54;20680;-73
2023/02/17 20:04:46;;;;;;;14.00;12.03;;;12.00;99.90;;;;;;2616006;54;20135;-73
2023/02/17 20:10:37;;;;;;;14.33;11.57;;;12.10;99.90;;;;;;2616252;54;20126;-74
2023/02/17 20:16:26;;;;;;;20.63;14.10;;;12.00;99.90;;;;;;2616265;54;21039;-72
2023/02/17 20:22:14;;;;;;;15.47;11.83;;;12.10;99.90;;;;;;2616190;46;20407;-73
2023/02/17 20:28:01;;;;;;;14.33;10.50;;;12.10;99.90;;;;;;2616411;54;20122;-74
2023/02/17 20:33:49;;;;;;;13.93;11.80;;;12.10;99.90;;;;;;2616027;54;20122;-73
2023/02/17 20:43:37;;;;;;;13.20;10.67;;;12.10;99.90;;;;;;2615947;54;20399;-73
2023/02/17 20:49:25;;;;;;;18.30;14.50;;;12.10;99.90;;;;;;2616666;54;20394;-73
2023/02/17 20:55:14;;;;;;;14.57;11.73;;;12.10;99.90;;;;;;2616330;54;20942;-73
2023/02/17 21:01:02;;;;;;;17.33;15.07;;;12.00;99.90;;;;;;2616190;54;20956;-72
2023/02/17 21:06:50;;;;;;;17.40;14.47;;;12.00;99.90;;;;;;2616103;54;20129;-73
2023/02/17 21:12:38;;;;;;;17.70;14.90;;;12.00;99.90;;;;;;2616078;54;20407;-73
2023/02/17 21:18:25;;;;;;;18.53;13.23;;;11.90;99.90;;;;;;2615957;54;20147;-73
2023/02/17 21:24:13;;;;;;;19.23;14.00;;;11.80;99.90;;;;;;2616211;54;20126;-72
2023/02/17 21:30:05;;;;;;;21.63;15.57;;;11.80;99.90;;;;;;2615852;54;20893;-74
2023/02/17 21:35:54;;;;;;;16.70;13.90;;;11.60;99.90;;;;;;2616726;39;20756;-73
2023/02/17 21:39:10;;;;;;;19.50;12.50;;;11.60;99.90;;;;;;2615062;54;20392;-74
2023/02/17 21:41:39;;;;;;;22.00;13.20;;;11.60;99.90;;;;;;2616278;39;20905;-74
2023/02/17 21:47:27;;;;;;;26.13;17.60;;;11.50;99.90;;;;;;2615766;54;20904;-74
2023/02/17 21:53:15;;;;;;;20.03;14.43;;;11.40;99.90;;;;;;2615776;54;20174;-73
2023/02/17 21:59:03;;;;;;;21.57;16.60;;;11.30;99.90;;;;;;2615597;54;20130;-74
2023/02/17 22:04:55;;;;;;;26.30;18.00;;;11.20;99.90;;;;;;2616232;31;20825;-73
2023/02/17 22:10:43;;;;;;;19.67;16.87;;;11.10;99.90;;;;;;2615613;54;20415;-73
2023/02/17 22:16:32;;;;;;;19.00;13.97;;;11.20;99.90;;;;;;2615439;54;20146;-74
2023/02/17 22:22:20;;;;;;;25.63;18.73;;;11.10;99.90;;;;;;2615396;54;20387;-73
2023/02/17 22:28:08;;;;;;;23.47;17.87;;;11.10;99.90;;;;;;2615321;54;20126;-73
2023/02/17 22:33:58;;;;;;;26.80;17.00;;;11.00;99.90;;;;;;2614996;54;20170;-73
2023/02/17 22:43:43;;;;;;;28.00;18.80;;;11.00;99.90;;;;;;2615059;54;20495;-73
2023/02/17 22:49:30;;;;;;;19.50;16.70;;;10.80;99.90;;;;;;2615543;54;20371;-73
2023/02/17 22:55:19;;;;;;;25.23;18.77;;;10.80;99.90;;;;;;2615187;54;20126;-73
2023/02/17 23:07:22;;;;;;;31.10;22.50;;;10.90;99.90;;;;;;2615296;54;20976;-73
2023/02/17 23:13:10;;;;;;;29.10;18.83;;;10.90;99.90;;;;;;2615304;54;20503;-73
2023/02/17 23:18:58;;;;;;;25.40;18.50;;;11.00;99.90;;;;;;2614890;54;20125;-73
2023/02/17 23:24:46;;;;;;;26.07;17.27;;;11.00;99.90;;;;;;2615545;39;20778;-73
2023/02/17 23:30:34;;;;;;;34.10;20.07;;;11.20;99.90;;;;;;2615751;54;20395;-74
2023/02/17 23:36:21;;;;;;;30.60;21.27;;;11.20;99.90;;;;;;2616244;39;20672;-73
2023/02/17 23:39:08;;;;;;;26.07;20.90;;;11.20;99.90;;;;;;2615752;54;20483;-73
2023/02/17 23:41:37;;;;;;;26.53;22.00;;;11.20;99.90;;;;;;2615828;54;20278;-74
2023/02/17 23:47:25;;;;;;;27.67;20.43;;;11.20;99.90;;;;;;2615475;54;20409;-73
2023/02/17 23:53:12;;;;;;;24.53;18.70;;;11.20;99.90;;;;;;2615697;54;20745;-73
2023/02/17 23:59:02;;;;;;;25.80;19.10;;;11.20;99.90;;;;;;2615676;54;20387;-74
